createdAt,value
2018-05-01T00:00:34.149Z,5.40
2018-05-01T00:03:01.879Z,5.27
2018-05-01T00:05:29.642Z,5.30
2018-05-01T00:07:57.358Z,4.87
2018-05-01T00:10:25.090Z,4.30
2018-05-01T00:12:52.822Z,4.20
2018-05-01T00:15:20.948Z,5.40
2018-05-01T00:17:48.689Z,5.00
2018-05-01T00:20:16.503Z,4.87
2018-05-01T00:22:44.374Z,5.87
2018-05-01T00:25:12.127Z,4.87
2018-05-01T00:27:39.850Z,5.23
2018-05-01T00:30:07.660Z,5.03
2018-05-01T00:32:35.381Z,5.27
2018-05-01T00:35:03.131Z,4.53
2018-05-01T00:37:30.859Z,4.47
2018-05-01T00:39:58.655Z,4.50
2018-05-01T00:42:26.402Z,4.63
2018-05-01T00:44:54.558Z,4.20
2018-05-01T00:47:22.286Z,4.00
2018-05-01T00:49:50.003Z,3.67
2018-05-01T00:52:30.049Z,3.77
2018-05-01T00:54:58.162Z,3.90
2018-05-01T00:57:25.908Z,4.20
2018-05-01T00:59:53.686Z,3.90
2018-05-01T01:02:21.498Z,3.83
2018-05-01T01:04:49.262Z,3.57
2018-05-01T01:07:16.994Z,3.90
2018-05-01T01:09:44.721Z,4.00
2018-05-01T01:12:12.834Z,3.93
2018-05-01T01:14:40.578Z,4.00
2018-05-01T01:17:08.301Z,3.83
2018-05-01T01:19:36.028Z,3.37
2018-05-01T01:22:03.773Z,3.20
2018-05-01T01:24:31.498Z,3.20
2018-05-01T01:26:59.646Z,3.47
2018-05-01T01:29:27.373Z,3.13
2018-05-01T01:34:53.678Z,2.53
2018-05-01T01:37:20.946Z,2.30
2018-05-01T01:39:48.582Z,2.80
2018-05-01T01:42:15.811Z,3.07
2018-05-01T01:44:43.090Z,2.50
2018-05-01T01:47:10.348Z,2.77
2018-05-01T01:49:37.589Z,2.30
2018-05-01T01:52:04.911Z,2.60
2018-05-01T01:54:32.165Z,2.53
2018-05-01T01:56:59.447Z,2.47
2018-05-01T01:59:26.694Z,3.43
2018-05-01T02:01:53.963Z,3.20
2018-05-01T02:04:21.681Z,3.13
2018-05-01T02:06:48.982Z,2.73
2018-05-01T02:09:16.220Z,2.77
2018-05-01T02:11:43.486Z,2.20
2018-05-01T02:14:10.713Z,2.63
2018-05-01T02:16:37.998Z,2.87
2018-05-01T02:19:05.229Z,2.90
2018-05-01T02:21:32.466Z,3.13
2018-05-01T02:23:59.709Z,2.93
2018-05-01T02:26:26.956Z,3.07
2018-05-01T02:28:54.228Z,2.40
2018-05-01T02:31:21.459Z,3.07
2018-05-01T02:33:48.727Z,3.43
2018-05-01T02:36:16.013Z,2.70
2018-05-01T02:38:43.368Z,2.80
2018-05-01T02:41:10.718Z,3.20
2018-05-01T02:43:37.894Z,3.00
2018-05-01T02:46:05.558Z,2.60
2018-05-01T02:48:33.175Z,3.30
2018-05-01T02:51:00.488Z,2.63
2018-05-01T02:53:27.748Z,3.40
2018-05-01T02:55:55.099Z,2.93
2018-05-01T02:58:22.339Z,3.77
2018-05-01T03:00:49.665Z,3.10
2018-05-01T03:03:16.892Z,3.40
2018-05-01T03:05:44.147Z,2.87
2018-05-01T03:08:11.397Z,2.87
2018-05-01T03:10:38.629Z,3.37
2018-05-01T03:13:05.892Z,3.33
2018-05-01T03:15:33.198Z,2.20
2018-05-01T03:18:00.830Z,3.03
2018-05-01T03:20:28.069Z,2.43
2018-05-01T03:22:55.338Z,2.20
2018-05-01T03:25:22.710Z,2.77
2018-05-01T03:27:50.166Z,2.10
2018-05-01T03:30:17.423Z,2.20
2018-05-01T03:32:45.063Z,2.20
2018-05-01T03:35:12.320Z,2.30
2018-05-01T03:37:39.561Z,2.60
2018-05-01T03:40:06.800Z,2.73
2018-05-01T03:42:34.078Z,2.53
2018-05-01T03:45:01.373Z,2.80
2018-05-01T03:47:28.714Z,2.77
2018-05-01T03:49:56.462Z,3.00
2018-05-01T03:52:23.720Z,3.00
2018-05-01T03:54:51.337Z,2.37
2018-05-01T03:57:18.578Z,1.83
2018-05-01T03:59:45.808Z,2.27
2018-05-01T04:02:13.120Z,2.57
2018-05-01T04:04:40.340Z,1.90
2018-05-01T04:07:07.631Z,2.57
2018-05-01T04:09:34.999Z,2.60
2018-05-01T04:12:02.651Z,2.83
2018-05-01T04:14:29.903Z,2.37
2018-05-01T04:16:57.144Z,2.30
2018-05-01T04:19:24.408Z,1.90
2018-05-01T04:21:51.640Z,1.70
2018-05-01T04:24:18.876Z,2.03
2018-05-01T04:26:46.161Z,2.77
2018-05-01T04:29:13.387Z,1.87
2018-05-01T04:31:40.677Z,2.33
2018-05-01T04:34:08.296Z,2.10
2018-05-01T04:36:35.538Z,2.37
2018-05-01T04:39:02.792Z,2.37
2018-05-01T04:41:30.050Z,2.20
2018-05-01T04:43:57.295Z,2.00
2018-05-01T04:46:24.536Z,1.67
2018-05-01T04:48:51.834Z,1.73
2018-05-01T04:51:19.083Z,1.63
2018-05-01T04:53:46.331Z,1.60
2018-05-01T04:56:13.598Z,1.63
2018-05-01T04:58:40.846Z,1.70
2018-05-01T05:01:08.249Z,1.30
2018-05-01T05:03:35.491Z,1.23
2018-05-01T05:06:03.213Z,1.27
2018-05-01T05:08:30.447Z,1.37
2018-05-01T05:10:57.689Z,1.10
2018-05-01T05:13:24.947Z,1.10
2018-05-01T05:15:52.180Z,0.93
2018-05-01T05:18:19.422Z,0.93
2018-05-01T05:20:46.783Z,1.03
2018-05-01T05:23:14.176Z,0.93
2018-05-01T05:25:41.407Z,1.47
2018-05-01T05:28:08.655Z,0.97
2018-05-01T05:30:35.908Z,1.00
2018-05-01T05:33:03.231Z,1.00
2018-05-01T05:35:30.961Z,0.70
2018-05-01T05:37:58.202Z,0.87
2018-05-01T05:40:25.477Z,1.10
2018-05-01T05:42:52.737Z,1.10
2018-05-01T05:45:19.982Z,0.70
2018-05-01T05:47:47.333Z,1.10
2018-05-01T05:50:14.589Z,0.93
2018-05-01T05:52:41.879Z,0.70
2018-05-01T05:55:09.129Z,0.80
2018-05-01T05:57:36.374Z,0.93
2018-05-01T06:00:03.632Z,0.70
2018-05-01T06:02:30.960Z,0.70
2018-05-01T06:04:58.616Z,0.77
2018-05-01T06:07:25.861Z,0.80
2018-05-01T06:09:53.258Z,0.70
2018-05-01T06:12:20.637Z,0.60
2018-05-01T06:14:47.932Z,0.60
2018-05-01T06:17:15.200Z,0.70
2018-05-01T06:19:42.838Z,0.60
2018-05-01T06:22:10.169Z,0.60
2018-05-01T06:24:37.786Z,0.77
2018-05-01T06:27:05.412Z,0.90
2018-05-01T06:29:32.663Z,0.73
2018-05-01T06:31:59.884Z,0.60
2018-05-01T06:34:27.137Z,0.90
2018-05-01T06:36:54.512Z,0.77
2018-05-01T06:39:22.091Z,0.53
2018-05-01T06:41:49.349Z,0.63
2018-05-01T06:44:16.576Z,0.50
2018-05-01T06:46:43.846Z,0.60
2018-05-01T06:49:11.099Z,0.87
2018-05-01T06:51:38.353Z,0.57
2018-05-01T06:54:05.608Z,0.50
2018-05-01T06:56:32.854Z,0.60
2018-05-01T06:59:00.090Z,0.70
2018-05-01T07:01:27.281Z,0.60
2018-05-01T07:03:54.436Z,0.50
2018-05-01T07:06:21.612Z,0.70
2018-05-01T07:08:48.765Z,0.70
2018-05-01T07:11:15.934Z,0.60
2018-05-01T07:13:43.140Z,0.60
2018-05-01T07:16:10.715Z,0.70
2018-05-01T07:18:38.269Z,0.63
2018-05-01T07:21:05.902Z,0.60
2018-05-01T07:23:33.388Z,0.77
2018-05-01T07:26:00.554Z,0.60
2018-05-01T07:28:27.826Z,0.50
2018-05-01T07:30:55.036Z,0.60
2018-05-01T07:33:22.693Z,0.50
2018-05-01T07:35:50.259Z,0.50
2018-05-01T07:38:17.838Z,0.50
2018-05-01T07:40:44.977Z,0.60
2018-05-01T07:43:12.548Z,0.60
2018-05-01T07:45:39.776Z,0.60
2018-05-01T07:48:06.936Z,0.70
2018-05-01T07:50:34.493Z,0.70
2018-05-01T07:53:02.342Z,0.97
2018-05-01T07:55:29.489Z,0.57
2018-05-01T07:57:56.639Z,0.50
2018-05-01T08:00:23.900Z,0.50
2018-05-01T08:02:51.059Z,0.70
2018-05-01T08:05:18.726Z,0.70
2018-05-01T08:07:46.286Z,0.70
2018-05-01T08:10:13.961Z,0.77
2018-05-01T08:12:41.115Z,0.70
2018-05-01T08:15:08.285Z,1.13
2018-05-01T08:17:35.503Z,0.60
2018-05-01T08:20:03.102Z,0.70
2018-05-01T08:22:30.248Z,0.77
2018-05-01T08:24:57.392Z,0.70
2018-05-01T08:27:24.625Z,0.80
2018-05-01T08:29:51.789Z,0.90
2018-05-01T08:32:18.957Z,0.63
2018-05-01T08:34:46.133Z,0.70
2018-05-01T08:37:13.312Z,0.73
2018-05-01T08:39:40.845Z,0.80
2018-05-01T08:42:08.048Z,1.10
2018-05-01T08:44:35.201Z,0.70
2018-05-01T08:47:02.439Z,0.80
2018-05-01T08:49:29.620Z,1.13
2018-05-01T08:51:56.839Z,0.80
2018-05-01T08:54:24.024Z,0.70
2018-05-01T08:56:51.241Z,1.37
2018-05-01T08:59:18.792Z,1.77
2018-05-01T09:01:46.370Z,1.00
2018-05-01T09:04:13.569Z,0.87
2018-05-01T09:06:40.755Z,0.83
2018-05-01T09:09:08.297Z,0.90
2018-05-01T09:11:35.563Z,0.93
2018-05-01T09:14:03.121Z,0.60
2018-05-01T09:16:30.690Z,0.40
2018-05-01T09:18:58.239Z,0.70
2018-05-01T09:21:25.790Z,0.80
2018-05-01T09:23:52.959Z,0.50
2018-05-01T09:26:20.511Z,0.60
2018-05-01T09:28:48.080Z,0.60
2018-05-01T09:31:15.734Z,0.53
2018-05-01T09:33:43.313Z,0.53
2018-05-01T09:36:10.543Z,0.50
2018-05-01T09:38:38.081Z,0.60
2018-05-01T09:41:05.277Z,0.50
2018-05-01T09:43:32.504Z,0.80
2018-05-01T09:46:00.169Z,0.93
2018-05-01T09:48:27.706Z,0.50
2018-05-01T09:50:54.880Z,0.40
2018-05-01T09:53:22.933Z,0.50
2018-05-01T09:55:50.605Z,1.10
2018-05-01T09:58:18.629Z,0.70
2018-05-01T10:00:46.271Z,0.50
2018-05-01T10:03:13.948Z,0.57
2018-05-01T10:05:41.579Z,0.43
2018-05-01T10:08:10.455Z,0.47
2018-05-01T10:10:38.090Z,0.67
2018-05-01T10:13:05.735Z,0.50
2018-05-01T10:15:33.388Z,0.50
2018-05-01T10:18:01.042Z,0.70
2018-05-01T10:20:28.774Z,0.73
2018-05-01T10:22:56.808Z,0.40
2018-05-01T10:25:24.469Z,0.50
2018-05-01T10:27:52.109Z,0.73
2018-05-01T10:30:19.760Z,0.50
2018-05-01T10:32:47.397Z,0.50
2018-05-01T10:35:15.544Z,0.43
2018-05-01T10:37:43.224Z,0.50
2018-05-01T10:40:11.249Z,0.40
2018-05-01T10:42:38.910Z,0.53
2018-05-01T10:45:06.669Z,0.80
2018-05-01T10:47:34.336Z,0.60
2018-05-01T10:50:01.979Z,0.50
2018-05-01T10:52:29.644Z,0.40
2018-05-01T10:54:57.348Z,0.40
2018-05-01T10:57:25.014Z,0.60
2018-05-01T10:59:52.652Z,0.50
2018-05-01T11:02:20.327Z,2.10
2018-05-01T11:04:47.956Z,0.70
2018-05-01T11:07:15.585Z,0.53
2018-05-01T11:09:43.639Z,0.50
2018-05-01T11:12:11.270Z,0.50
2018-05-01T11:14:38.969Z,0.50
2018-05-01T11:17:07.043Z,0.50
2018-05-01T11:19:35.081Z,0.70
2018-05-01T11:22:02.722Z,0.70
2018-05-01T11:24:30.400Z,0.90
2018-05-01T11:26:58.046Z,0.80
2018-05-01T11:29:25.681Z,0.60
2018-05-01T11:31:53.327Z,0.83
2018-05-01T11:34:21.393Z,0.90
2018-05-01T11:36:49.449Z,0.70
2018-05-01T11:39:17.075Z,0.70
2018-05-01T11:41:44.797Z,0.67
2018-05-01T11:44:12.847Z,0.80
2018-05-01T11:46:40.503Z,0.60
2018-05-01T11:49:08.137Z,0.90
2018-05-01T11:51:35.805Z,0.70
2018-05-01T11:54:03.517Z,0.80
2018-05-01T11:56:31.558Z,0.70
2018-05-01T11:58:59.239Z,1.33
2018-05-01T12:01:26.918Z,0.80
2018-05-01T12:03:54.967Z,0.80
2018-05-01T12:06:22.596Z,0.80
2018-05-01T12:08:50.303Z,0.83
2018-05-01T12:11:18.352Z,1.00
2018-05-01T12:13:46.304Z,0.83
2018-05-01T12:16:13.942Z,2.80
2018-05-01T12:18:41.695Z,1.10
2018-05-01T12:21:09.327Z,0.87
2018-05-01T12:23:37.376Z,0.70
2018-05-01T12:26:05.077Z,0.93
2018-05-01T12:28:33.223Z,7.00
2018-05-01T12:31:00.822Z,1.03
2018-05-01T12:33:28.485Z,0.60
2018-05-01T12:35:56.221Z,0.70
2018-05-01T12:38:24.251Z,1.00
2018-05-01T12:40:51.913Z,0.90
2018-05-01T12:43:19.651Z,0.90
2018-05-01T12:45:47.297Z,1.27
2018-05-01T12:48:15.372Z,0.77
2018-05-01T12:50:43.425Z,0.80
2018-05-01T12:53:11.500Z,0.80
2018-05-01T12:55:39.612Z,0.60
2018-05-01T12:58:07.349Z,0.70
2018-05-01T13:00:35.099Z,1.00
2018-05-01T13:03:03.132Z,0.60
2018-05-01T13:05:30.824Z,0.90
2018-05-01T13:07:58.467Z,0.70
2018-05-01T13:10:26.120Z,0.80
2018-05-01T13:12:53.779Z,0.90
2018-05-01T13:15:21.489Z,0.80
2018-05-01T13:17:49.589Z,0.80
2018-05-01T13:20:17.231Z,0.80
2018-05-01T13:22:44.886Z,0.90
2018-05-01T13:25:12.904Z,1.10
2018-05-01T13:27:40.550Z,1.10
2018-05-01T13:30:08.219Z,1.00
2018-05-01T13:32:35.916Z,0.90
2018-05-01T13:35:03.516Z,1.00
2018-05-01T13:37:31.157Z,0.90
2018-05-01T13:39:59.207Z,0.73
2018-05-01T13:42:26.908Z,0.60
2018-05-01T13:44:54.668Z,0.70
2018-05-01T13:47:22.701Z,0.90
2018-05-01T13:49:50.363Z,1.07
2018-05-01T13:52:17.996Z,1.07
2018-05-01T13:54:45.716Z,0.80
2018-05-01T13:57:13.857Z,1.00
2018-05-01T13:59:41.828Z,0.70
2018-05-01T14:02:09.487Z,0.60
2018-05-01T14:04:37.200Z,1.33
2018-05-01T14:07:04.892Z,0.80
2018-05-01T14:09:32.603Z,0.70
2018-05-01T14:12:00.676Z,0.70
2018-05-01T14:14:28.754Z,0.70
2018-05-01T14:16:56.775Z,0.80
2018-05-01T14:19:24.566Z,0.80
2018-05-01T14:21:52.545Z,0.80
2018-05-01T14:24:20.208Z,0.70
2018-05-01T14:26:47.875Z,0.93
2018-05-01T14:29:15.528Z,0.63
2018-05-01T14:31:43.597Z,1.00
2018-05-01T14:34:11.301Z,0.90
2018-05-01T14:36:39.103Z,1.10
2018-05-01T14:39:06.800Z,1.00
2018-05-01T14:41:34.856Z,0.87
2018-05-01T14:44:02.538Z,0.63
2018-05-01T14:46:30.573Z,1.13
2018-05-01T14:48:58.259Z,0.60
2018-05-01T14:51:25.923Z,1.03
2018-05-01T14:53:53.576Z,0.70
2018-05-01T14:56:21.252Z,0.70
2018-05-01T14:58:48.900Z,0.90
2018-05-01T15:01:20.298Z,0.67
2018-05-01T15:03:47.985Z,0.87
2018-05-01T15:06:15.628Z,0.90
2018-05-01T15:08:43.376Z,0.83
2018-05-01T15:11:11.029Z,1.07
2018-05-01T15:13:39.107Z,0.90
2018-05-01T15:16:06.746Z,0.70
2018-05-01T15:18:34.400Z,1.33
2018-05-01T15:21:02.095Z,1.10
2018-05-01T15:23:29.745Z,0.70
2018-05-01T15:25:57.851Z,0.87
2018-05-01T15:28:25.523Z,0.70
2018-05-01T15:30:53.185Z,0.90
2018-05-01T15:33:20.910Z,1.57
2018-05-01T15:35:48.668Z,0.93
2018-05-01T15:38:16.713Z,1.37
2018-05-01T15:40:44.817Z,1.10
2018-05-01T15:43:12.843Z,1.00
2018-05-01T15:45:40.487Z,1.00
2018-05-01T15:48:08.207Z,0.80
2018-05-01T15:50:36.256Z,0.83
2018-05-01T15:53:03.888Z,1.00
2018-05-01T15:55:31.543Z,0.73
2018-05-01T15:57:59.248Z,0.90
2018-05-01T16:00:26.924Z,0.80
2018-05-01T16:02:54.970Z,1.00
2018-05-01T16:05:22.607Z,0.90
2018-05-01T16:07:50.248Z,0.80
2018-05-01T16:10:18.018Z,0.90
2018-05-01T16:12:45.650Z,1.00
2018-05-01T16:15:13.706Z,1.00
2018-05-01T16:17:41.351Z,1.53
2018-05-01T16:20:09.006Z,1.23
2018-05-01T16:22:36.643Z,0.97
2018-05-01T16:25:04.354Z,1.13
2018-05-01T16:27:32.026Z,1.27
2018-05-01T16:30:00.069Z,1.53
2018-05-01T16:32:27.726Z,1.43
2018-05-01T16:34:55.426Z,1.20
2018-05-01T16:37:23.487Z,1.10
2018-05-01T16:39:51.155Z,0.97
2018-05-01T16:42:19.220Z,1.10
2018-05-01T16:44:46.856Z,1.23
2018-05-01T16:47:14.570Z,3.80
2018-05-01T16:49:42.218Z,1.33
2018-05-01T16:52:10.272Z,1.30
2018-05-01T16:54:37.946Z,1.90
2018-05-01T16:57:06.047Z,1.33
2018-05-01T16:59:33.722Z,1.20
2018-05-01T17:02:01.385Z,1.00
2018-05-01T17:04:29.040Z,1.13
2018-05-01T17:06:56.776Z,1.47
2018-05-01T17:09:24.846Z,1.00
2018-05-01T17:11:52.903Z,1.20
2018-05-01T17:14:20.553Z,1.20
2018-05-01T17:16:48.185Z,1.70
2018-05-01T17:19:15.839Z,1.03
2018-05-01T17:21:43.553Z,1.03
2018-05-01T17:24:11.208Z,1.40
2018-05-01T17:26:38.885Z,1.57
2018-05-01T17:29:07.029Z,1.07
2018-05-01T17:31:35.028Z,1.17
2018-05-01T17:34:03.056Z,1.33
2018-05-01T17:36:30.697Z,1.20
2018-05-01T17:38:58.429Z,1.33
2018-05-01T17:41:26.507Z,1.33
2018-05-01T17:43:54.567Z,1.73
2018-05-01T17:46:22.607Z,1.27
2018-05-01T17:48:50.349Z,1.27
2018-05-01T17:51:18.343Z,1.50
2018-05-01T17:53:46.068Z,1.40
2018-05-01T17:56:13.704Z,1.23
2018-05-01T17:58:41.785Z,1.37
2018-05-01T18:01:09.848Z,1.50
2018-05-01T18:03:37.507Z,1.77
2018-05-01T18:06:05.554Z,1.63
2018-05-01T18:08:33.239Z,2.00
2018-05-01T18:11:02.201Z,1.17
2018-05-01T18:13:29.839Z,1.60
2018-05-01T18:15:57.498Z,1.40
2018-05-01T18:18:25.223Z,1.60
2018-05-01T18:20:52.883Z,2.03
2018-05-01T18:23:20.967Z,1.60
2018-05-01T18:25:48.588Z,1.30
2018-05-01T18:28:16.251Z,1.83
2018-05-01T18:30:44.050Z,2.03
2018-05-01T18:33:11.597Z,1.70
2018-05-01T18:35:39.665Z,1.57
2018-05-01T18:38:07.717Z,1.53
2018-05-01T18:40:35.372Z,1.93
2018-05-01T18:43:03.042Z,3.53
2018-05-01T18:45:30.703Z,1.83
2018-05-01T18:47:58.345Z,1.93
2018-05-01T18:50:40.394Z,1.87
2018-05-01T18:53:06.833Z,2.10
2018-05-01T18:55:34.869Z,1.53
2018-05-01T18:58:02.545Z,1.60
2018-05-01T19:00:30.212Z,1.80
2018-05-01T19:02:57.869Z,1.90
2018-05-01T19:05:25.513Z,2.43
2018-05-01T19:07:53.172Z,2.30
2018-05-01T19:10:21.093Z,1.93
2018-05-01T19:12:48.746Z,2.10
2018-05-01T19:15:16.511Z,1.90
2018-05-01T19:17:44.160Z,1.60
2018-05-01T19:20:12.250Z,3.07
2018-05-01T19:22:39.990Z,1.80
2018-05-01T19:25:08.031Z,1.63
2018-05-01T19:27:35.733Z,2.30
2018-05-01T19:30:03.790Z,1.87
2018-05-01T19:32:31.461Z,1.73
2018-05-01T19:34:59.536Z,2.07
2018-05-01T19:37:27.604Z,1.87
2018-05-01T19:39:55.986Z,2.60
2018-05-01T19:42:24.049Z,2.90
2018-05-01T19:44:52.096Z,2.50
2018-05-01T19:47:19.795Z,2.60
2018-05-01T19:49:47.826Z,2.10
2018-05-01T19:52:15.488Z,2.50
2018-05-01T19:54:43.138Z,2.37
2018-05-01T19:57:10.913Z,2.03
2018-05-01T19:59:38.543Z,2.33
2018-05-01T20:02:06.375Z,2.23
2018-05-01T20:04:34.412Z,2.60
2018-05-01T20:07:02.071Z,2.07
2018-05-01T20:09:29.710Z,2.63
2018-05-01T20:11:57.386Z,2.60
2018-05-01T20:14:25.099Z,2.40
2018-05-01T20:16:53.204Z,3.60
2018-05-01T20:19:20.939Z,2.80
2018-05-01T20:21:48.588Z,3.83
2018-05-01T20:24:16.356Z,3.83
2018-05-01T20:26:44.039Z,3.00
2018-05-01T20:29:11.708Z,2.30
2018-05-01T20:31:39.362Z,3.30
2018-05-01T20:34:07.133Z,3.17
2018-05-01T20:36:34.775Z,3.40
2018-05-01T20:39:02.842Z,2.50
2018-05-01T20:41:30.919Z,3.07
2018-05-01T20:43:58.988Z,2.93
2018-05-01T20:46:27.024Z,2.60
2018-05-01T20:48:54.685Z,3.00
2018-05-01T20:51:22.346Z,3.20
2018-05-01T20:53:50.059Z,2.63
2018-05-01T20:56:17.806Z,2.63
2018-05-01T20:58:45.916Z,2.37
2018-05-01T21:01:13.615Z,2.77
2018-05-01T21:03:42.232Z,2.53
2018-05-01T21:06:10.288Z,2.77
2018-05-01T21:08:37.941Z,2.57
2018-05-01T21:11:05.660Z,2.40
2018-05-01T21:13:33.392Z,2.80
2018-05-01T21:16:01.026Z,3.17
2018-05-01T21:18:28.713Z,2.90
2018-05-01T21:20:56.812Z,2.40
2018-05-01T21:23:24.474Z,2.63
2018-05-01T21:25:52.109Z,3.17
2018-05-01T21:28:20.183Z,2.50
2018-05-01T21:30:48.401Z,3.80
2018-05-01T21:33:16.114Z,3.03
2018-05-01T21:35:44.188Z,3.00
2018-05-01T21:38:12.240Z,3.60
2018-05-01T21:40:39.877Z,3.00
2018-05-01T21:43:07.583Z,9.50
2018-05-01T21:45:35.643Z,6.93
2018-05-01T21:48:03.309Z,3.93
2018-05-01T21:50:30.966Z,3.20
2018-05-01T21:52:58.641Z,3.60
2018-05-01T21:55:26.703Z,3.77
2018-05-01T21:57:54.345Z,3.27
2018-05-01T22:00:22.046Z,3.87
2018-05-01T22:02:50.084Z,2.90
2018-05-01T22:05:17.780Z,2.70
2018-05-01T22:07:45.821Z,2.73
2018-05-01T22:10:13.497Z,3.47
2018-05-01T22:12:41.146Z,3.03
2018-05-01T22:15:09.359Z,3.47
2018-05-01T22:17:37.114Z,2.70
2018-05-01T22:20:05.152Z,2.60
2018-05-01T22:22:32.817Z,2.60
2018-05-01T22:25:00.502Z,3.20
2018-05-01T22:27:28.165Z,2.57
2018-05-01T22:29:56.228Z,3.23
2018-05-01T22:32:23.901Z,3.93
2018-05-01T22:34:51.956Z,2.97
2018-05-01T22:37:19.695Z,3.20
2018-05-01T22:39:47.359Z,2.70
2018-05-01T22:42:15.067Z,3.43
2018-05-01T22:44:43.116Z,2.90
2018-05-01T22:47:10.795Z,3.67
2018-05-01T22:49:38.842Z,4.40
2018-05-01T22:52:06.502Z,3.37
2018-05-01T22:54:34.133Z,3.77
2018-05-01T22:57:01.856Z,3.77
2018-05-01T22:59:29.931Z,3.00
2018-05-01T23:01:57.963Z,3.50
2018-05-01T23:04:25.624Z,3.70
2018-05-01T23:06:53.332Z,4.30
2018-05-01T23:09:21.500Z,3.90
2018-05-01T23:11:49.182Z,3.43
2018-05-01T23:14:16.821Z,4.17
2018-05-01T23:16:44.898Z,3.90
2018-05-01T23:19:13.130Z,3.77
2018-05-01T23:21:40.774Z,3.87
2018-05-01T23:24:08.452Z,4.10
2018-05-01T23:26:37.088Z,4.10
2018-05-01T23:29:04.728Z,4.47
2018-05-01T23:31:32.782Z,3.97
2018-05-01T23:34:00.422Z,3.43
2018-05-01T23:36:28.090Z,4.00
2018-05-01T23:38:55.807Z,3.70
2018-05-01T23:41:23.861Z,4.10
2018-05-01T23:43:51.539Z,4.30
2018-05-01T23:46:19.596Z,5.73
2018-05-01T23:48:48.422Z,7.60
2018-05-01T23:51:16.061Z,5.87
2018-05-01T23:53:43.817Z,6.07
2018-05-01T23:56:11.863Z,6.13
2018-05-01T23:58:39.565Z,5.30
